createdAt,value
2022-08-04T00:00:20.374Z,21.07
2022-08-04T00:03:12.012Z,21.02
2022-08-04T00:06:00.978Z,21.01
2022-08-04T00:08:37.596Z,20.97
2022-08-04T00:11:05.620Z,20.88
2022-08-04T00:13:39.551Z,20.90
2022-08-04T00:16:32.903Z,20.85
2022-08-04T00:19:17.444Z,20.67
2022-08-04T00:21:49.251Z,20.82
2022-08-04T00:24:17.771Z,20.75
2022-08-04T00:26:45.578Z,20.79
2022-08-04T00:29:13.129Z,20.74
2022-08-04T00:31:56.245Z,20.74
2022-08-04T00:34:30.295Z,20.72
2022-08-04T00:36:59.312Z,20.72
2022-08-04T00:39:27.645Z,20.69
2022-08-04T00:42:10.364Z,20.72
2022-08-04T00:45:08.537Z,20.69
2022-08-04T00:47:51.089Z,20.68
2022-08-04T00:50:21.221Z,20.70
2022-08-04T00:52:48.676Z,20.67
2022-08-04T00:55:37.721Z,20.67
2022-08-04T00:58:28.869Z,20.63
2022-08-04T01:01:05.367Z,20.62
2022-08-04T01:03:51.213Z,20.62
2022-08-04T01:06:50.760Z,20.60
2022-08-04T01:09:45.126Z,20.61
2022-08-04T01:12:15.623Z,20.64
2022-08-04T01:15:18.894Z,20.65
2022-08-04T01:18:00.934Z,20.59
2022-08-04T01:20:43.344Z,20.57
2022-08-04T01:23:25.812Z,20.52
2022-08-04T01:26:43.470Z,20.51
2022-08-04T01:29:09.497Z,20.45
2022-08-04T01:31:51.982Z,20.44
2022-08-04T01:34:21.498Z,20.40
2022-08-04T01:37:04.698Z,20.36
2022-08-04T01:39:43.021Z,20.32
2022-08-04T01:42:12.654Z,20.31
2022-08-04T01:44:51.220Z,20.30
2022-08-04T01:47:22.688Z,20.30
2022-08-04T01:49:52.752Z,20.29
2022-08-04T01:52:20.921Z,20.27
2022-08-04T01:54:49.616Z,20.28
2022-08-04T01:57:37.119Z,20.27
2022-08-04T02:00:08.248Z,20.27
2022-08-04T02:02:35.853Z,20.26
2022-08-04T02:05:03.925Z,20.25
2022-08-04T02:07:51.407Z,20.22
2022-08-04T02:10:40.799Z,20.17
2022-08-04T02:13:30.854Z,20.16
2022-08-04T02:16:20.358Z,20.17
2022-08-04T02:19:17.759Z,20.20
2022-08-04T02:21:49.690Z,20.21
2022-08-04T02:24:20.113Z,20.21
2022-08-04T02:26:50.942Z,20.19
2022-08-04T02:29:22.109Z,20.18
2022-08-04T02:31:57.797Z,20.17
2022-08-04T02:34:43.465Z,20.17
2022-08-04T02:37:12.066Z,20.12
2022-08-04T02:39:48.503Z,20.13
2022-08-04T02:42:17.793Z,20.13
2022-08-04T02:44:51.587Z,20.15
2022-08-04T02:48:19.360Z,20.12
2022-08-04T02:50:28.479Z,20.15
2022-08-04T02:52:59.280Z,20.16
2022-08-04T02:55:30.315Z,20.11
2022-08-04T02:57:59.583Z,20.11
2022-08-04T03:00:27.633Z,20.07
2022-08-04T03:03:10.331Z,20.09
2022-08-04T03:06:00.635Z,20.06
2022-08-04T03:08:31.750Z,20.06
2022-08-04T03:11:20.767Z,20.05
2022-08-04T03:14:11.034Z,20.03
2022-08-04T03:16:56.506Z,20.00
2022-08-04T03:19:59.163Z,20.02
2022-08-04T03:22:34.102Z,20.00
2022-08-04T03:25:25.855Z,19.99
2022-08-04T03:28:32.161Z,19.99
2022-08-04T03:31:21.590Z,19.96
2022-08-04T03:34:16.675Z,19.94
2022-08-04T03:37:09.092Z,19.94
2022-08-04T03:40:02.005Z,19.94
2022-08-04T03:42:32.558Z,19.87
2022-08-04T03:45:29.883Z,19.85
2022-08-04T03:48:09.573Z,19.82
2022-08-04T03:51:35.621Z,19.79
2022-08-04T03:54:33.113Z,19.79
2022-08-04T03:57:22.223Z,19.77
2022-08-04T04:00:21.200Z,19.79
2022-08-04T04:03:33.003Z,19.73
2022-08-04T04:06:44.674Z,19.73
2022-08-04T04:09:30.034Z,19.75
2022-08-04T04:12:54.631Z,19.82
2022-08-04T04:15:54.176Z,19.89
2022-08-04T04:18:30.711Z,19.95
2022-08-04T04:21:23.763Z,20.00
2022-08-04T04:24:09.764Z,20.05
2022-08-04T04:26:46.004Z,20.07
2022-08-04T04:29:22.794Z,20.08
2022-08-04T04:32:04.119Z,20.15
2022-08-04T04:34:47.437Z,20.17
2022-08-04T04:37:47.693Z,20.35
2022-08-04T04:40:25.882Z,20.40
2022-08-04T04:43:18.867Z,20.46
2022-08-04T04:46:15.316Z,20.49
2022-08-04T04:49:07.286Z,20.55
2022-08-04T04:51:43.328Z,20.60
2022-08-04T04:54:35.722Z,20.74
2022-08-04T04:57:08.878Z,20.82
2022-08-04T04:59:40.568Z,20.88
2022-08-04T05:02:34.301Z,21.00
2022-08-04T05:05:28.099Z,21.13
2022-08-04T05:08:45.467Z,21.18
2022-08-04T05:11:52.343Z,21.29
2022-08-04T05:14:40.954Z,21.36
2022-08-04T05:17:24.611Z,21.46
2022-08-04T05:20:02.757Z,21.53
2022-08-04T05:23:03.002Z,21.63
2022-08-04T05:25:58.419Z,21.64
2022-08-04T05:28:55.547Z,21.67
2022-08-04T05:31:30.140Z,21.64
2022-08-04T05:34:08.277Z,21.77
2022-08-04T05:36:42.058Z,21.80
2022-08-04T05:39:16.903Z,21.85
2022-08-04T05:41:48.061Z,21.86
2022-08-04T05:44:24.727Z,21.95
2022-08-04T05:46:55.753Z,21.96
2022-08-04T05:49:25.728Z,22.03
2022-08-04T05:51:55.439Z,22.10
2022-08-04T05:54:24.031Z,22.16
2022-08-04T05:56:52.546Z,22.29
2022-08-04T05:59:21.583Z,22.34
2022-08-04T06:01:55.651Z,22.41
2022-08-04T06:04:32.085Z,22.48
2022-08-04T06:06:59.781Z,22.53
2022-08-04T06:09:27.607Z,22.57
2022-08-04T06:12:00.773Z,22.61
2022-08-04T06:14:38.010Z,22.65
2022-08-04T06:18:33.005Z,22.75
2022-08-04T06:20:18.459Z,22.78
2022-08-04T06:22:48.790Z,22.86
2022-08-04T06:25:20.877Z,22.88
2022-08-04T06:27:50.478Z,22.73
2022-08-04T06:30:19.468Z,22.83
2022-08-04T06:33:04.371Z,22.72
2022-08-04T06:35:33.496Z,22.83
2022-08-04T06:38:02.099Z,22.81
2022-08-04T06:40:33.667Z,22.94
2022-08-04T06:43:04.246Z,22.95
2022-08-04T06:45:34.452Z,22.87
2022-08-04T06:48:03.576Z,22.82
2022-08-04T06:51:26.166Z,22.80
2022-08-04T06:53:19.335Z,22.92
2022-08-04T06:55:48.373Z,22.93
2022-08-04T06:58:17.410Z,22.92
2022-08-04T07:00:48.000Z,23.01
2022-08-04T07:03:18.837Z,23.05
2022-08-04T07:05:48.661Z,23.21
2022-08-04T07:08:17.501Z,23.33
2022-08-04T07:10:46.290Z,23.33
2022-08-04T07:13:14.675Z,23.55
2022-08-04T07:15:46.944Z,23.62
2022-08-04T07:18:14.765Z,23.63
2022-08-04T07:20:44.433Z,23.77
2022-08-04T07:23:17.456Z,24.00
2022-08-04T07:26:12.030Z,24.06
2022-08-04T07:28:40.826Z,24.06
2022-08-04T07:31:32.040Z,23.99
2022-08-04T07:34:16.640Z,23.79
2022-08-04T07:36:50.578Z,23.95
2022-08-04T07:39:27.559Z,23.79
2022-08-04T07:42:02.345Z,23.96
2022-08-04T07:44:31.842Z,23.98
2022-08-04T07:47:00.626Z,24.01
2022-08-04T07:49:55.216Z,24.17
2022-08-04T07:52:17.092Z,24.26
2022-08-04T07:54:45.543Z,24.47
2022-08-04T07:57:19.519Z,24.50
2022-08-04T08:00:00.770Z,24.61
2022-08-04T08:02:29.342Z,24.78
2022-08-04T08:04:57.423Z,25.04
2022-08-04T08:07:25.050Z,25.10
2022-08-04T08:09:52.624Z,25.13
2022-08-04T08:12:36.858Z,25.04
2022-08-04T08:15:10.353Z,25.19
2022-08-04T08:17:57.819Z,25.08
2022-08-04T08:20:28.930Z,25.67
2022-08-04T08:22:58.060Z,25.36
2022-08-04T08:25:25.762Z,25.26
2022-08-04T08:27:55.929Z,25.36
2022-08-04T08:30:24.899Z,25.46
2022-08-04T08:33:01.699Z,25.51
2022-08-04T08:35:39.814Z,25.72
2022-08-04T08:38:30.103Z,26.05
2022-08-04T08:41:10.688Z,26.33
2022-08-04T08:44:38.017Z,26.47
2022-08-04T08:47:19.811Z,26.90
2022-08-04T08:50:03.180Z,26.61
2022-08-04T08:53:03.994Z,26.38
2022-08-04T08:55:55.316Z,26.81
2022-08-04T08:58:44.058Z,27.12
2022-08-04T09:01:42.329Z,27.64
2022-08-04T09:04:38.581Z,28.13
2022-08-04T09:07:30.943Z,27.67
2022-08-04T09:10:05.382Z,27.55
2022-08-04T09:12:53.729Z,28.08
2022-08-04T09:15:36.322Z,28.40
2022-08-04T09:18:11.253Z,28.32
2022-08-04T09:20:47.643Z,28.22
2022-08-04T09:23:37.037Z,28.73
2022-08-04T09:26:17.381Z,29.45
2022-08-04T09:28:55.129Z,30.20
2022-08-04T09:31:49.079Z,30.18
2022-08-04T09:34:39.766Z,30.23
2022-08-04T09:37:21.928Z,30.01
2022-08-04T09:40:04.506Z,29.46
2022-08-04T09:42:55.722Z,29.41
2022-08-04T09:45:43.322Z,29.31
2022-08-04T09:48:33.451Z,29.00
2022-08-04T09:51:01.095Z,28.67
2022-08-04T09:53:46.981Z,28.94
2022-08-04T09:56:58.930Z,28.79
2022-08-04T09:59:34.320Z,28.46
2022-08-04T10:02:08.951Z,27.70
2022-08-04T10:04:40.531Z,27.58
2022-08-04T10:07:07.970Z,27.49
2022-08-04T10:09:49.102Z,27.02
2022-08-04T10:12:19.540Z,26.83
2022-08-04T10:15:05.546Z,26.98
2022-08-04T10:17:51.956Z,27.11
2022-08-04T10:20:35.917Z,27.15
2022-08-04T10:23:14.043Z,27.00
2022-08-04T10:26:16.731Z,26.87
2022-08-04T10:28:59.171Z,26.63
2022-08-04T10:31:35.611Z,26.58
2022-08-04T10:34:11.844Z,26.59
2022-08-04T10:36:59.643Z,26.60
2022-08-04T10:39:42.697Z,26.54
2022-08-04T10:42:22.647Z,26.43
2022-08-04T10:45:12.114Z,26.31
2022-08-04T10:47:55.538Z,26.27
2022-08-04T10:50:25.837Z,26.38
2022-08-04T10:53:10.777Z,26.45
2022-08-04T10:56:07.544Z,26.36
2022-08-04T10:58:48.555Z,26.50
2022-08-04T11:02:01.132Z,26.42
2022-08-04T11:04:37.257Z,26.51
2022-08-04T11:07:05.190Z,26.68
2022-08-04T11:09:34.861Z,26.87
2022-08-04T11:12:16.966Z,27.04
2022-08-04T11:14:56.459Z,27.23
2022-08-04T11:17:29.097Z,27.82
2022-08-04T11:20:33.419Z,28.50
2022-08-04T11:23:03.986Z,28.95
2022-08-04T11:25:42.682Z,29.58
2022-08-04T11:28:20.021Z,29.98
2022-08-04T11:30:54.911Z,29.58
2022-08-04T11:33:31.711Z,29.81
2022-08-04T11:36:19.961Z,29.20
2022-08-04T11:39:12.253Z,29.41
2022-08-04T11:42:01.932Z,29.31
2022-08-04T11:44:50.172Z,28.74
2022-08-04T11:47:27.055Z,28.34
2022-08-04T11:50:09.606Z,28.34
2022-08-04T11:52:41.943Z,27.73
2022-08-04T11:55:17.291Z,28.30
2022-08-04T11:57:45.821Z,28.69
2022-08-04T12:00:23.386Z,29.43
2022-08-04T12:02:53.537Z,29.83
2022-08-04T12:05:36.570Z,29.40
2022-08-04T12:08:30.406Z,29.79
2022-08-04T12:11:22.158Z,30.18
2022-08-04T12:14:09.654Z,30.28
2022-08-04T12:16:53.548Z,30.68
2022-08-04T12:19:34.956Z,30.19
2022-08-04T12:22:22.979Z,30.50
2022-08-04T12:25:04.364Z,30.58
2022-08-04T12:27:42.976Z,29.62
2022-08-04T12:30:57.968Z,30.21
2022-08-04T12:33:01.277Z,30.88
2022-08-04T12:35:35.164Z,31.25
2022-08-04T12:38:16.837Z,30.66
2022-08-04T12:40:52.307Z,30.76
2022-08-04T12:43:44.753Z,31.08
2022-08-04T12:46:23.138Z,30.86
2022-08-04T12:48:51.396Z,30.72
2022-08-04T12:52:06.581Z,31.17
2022-08-04T12:54:10.173Z,31.23
2022-08-04T12:56:40.716Z,31.37
2022-08-04T12:59:12.581Z,31.97
2022-08-04T13:02:10.206Z,30.68
2022-08-04T13:04:30.764Z,31.86
2022-08-04T13:07:03.765Z,31.71
2022-08-04T13:09:35.024Z,32.27
2022-08-04T13:12:07.091Z,32.83
2022-08-04T13:14:38.901Z,33.05
2022-08-04T13:17:08.640Z,31.48
2022-08-04T13:19:41.358Z,30.44
2022-08-04T13:22:10.216Z,30.68
2022-08-04T13:24:57.013Z,30.82
2022-08-04T13:27:29.285Z,30.64
2022-08-04T13:30:14.734Z,30.50
2022-08-04T13:32:56.530Z,30.79
2022-08-04T13:35:54.149Z,30.08
2022-08-04T13:38:15.409Z,29.79
2022-08-04T13:40:44.771Z,30.02
2022-08-04T13:44:16.249Z,29.93
2022-08-04T13:46:27.677Z,29.64
2022-08-04T13:49:26.107Z,29.44
2022-08-04T13:52:02.273Z,30.05
2022-08-04T13:54:43.433Z,29.86
2022-08-04T13:57:19.236Z,29.71
2022-08-04T13:59:52.897Z,30.34
2022-08-04T14:02:58.472Z,30.73
2022-08-04T14:05:33.809Z,30.67
2022-08-04T14:08:16.315Z,30.48
2022-08-04T14:10:44.036Z,30.13
2022-08-04T14:13:11.674Z,30.89
2022-08-04T14:16:01.977Z,30.65
2022-08-04T14:18:33.071Z,31.05
2022-08-04T14:21:11.683Z,31.30
2022-08-04T14:23:59.453Z,31.12
2022-08-04T14:26:33.101Z,31.39
2022-08-04T14:29:28.162Z,30.48
2022-08-04T14:32:13.825Z,30.64
2022-08-04T14:34:50.559Z,30.17
2022-08-04T14:37:20.617Z,29.57
2022-08-04T14:40:17.827Z,29.82
2022-08-04T14:42:55.211Z,29.87
2022-08-04T14:45:38.694Z,29.37
2022-08-04T14:48:12.079Z,29.74
2022-08-04T14:50:42.332Z,29.51
2022-08-04T14:53:13.778Z,28.54
2022-08-04T14:55:44.153Z,29.31
2022-08-04T14:58:35.265Z,28.82
2022-08-04T15:01:10.377Z,28.68
2022-08-04T15:03:48.285Z,28.53
2022-08-04T15:06:22.168Z,28.66
2022-08-04T15:08:52.493Z,28.69
2022-08-04T15:11:23.506Z,28.48
2022-08-04T15:13:51.770Z,28.13
2022-08-04T15:16:20.068Z,27.67
2022-08-04T15:18:49.118Z,28.18
2022-08-04T15:21:18.015Z,27.74
2022-08-04T15:23:45.659Z,27.29
2022-08-04T15:26:16.681Z,27.37
2022-08-04T15:28:49.770Z,27.45
2022-08-04T15:32:06.536Z,27.15
2022-08-04T15:34:09.707Z,27.53
2022-08-04T15:36:45.526Z,27.38
2022-08-04T15:39:44.882Z,26.94
2022-08-04T15:42:16.134Z,26.97
2022-08-04T15:44:52.383Z,26.85
2022-08-04T15:47:20.188Z,26.86
2022-08-04T15:50:04.924Z,26.53
2022-08-04T15:53:15.899Z,26.53
2022-08-04T15:58:55.703Z,26.41
2022-08-04T16:01:23.960Z,26.06
2022-08-04T16:03:59.021Z,25.88
2022-08-04T16:06:29.201Z,25.92
2022-08-04T16:09:05.588Z,25.95
2022-08-04T16:11:34.930Z,26.03
2022-08-04T16:14:02.402Z,26.10
2022-08-04T16:16:29.894Z,25.86
2022-08-04T16:19:09.302Z,25.80
2022-08-04T16:21:52.122Z,25.48
2022-08-04T16:24:29.656Z,25.53
2022-08-04T16:26:58.307Z,25.61
2022-08-04T16:29:28.793Z,25.61
2022-08-04T16:32:05.497Z,25.46
2022-08-04T16:34:50.245Z,25.39
2022-08-04T16:37:30.771Z,25.27
2022-08-04T16:40:34.068Z,25.34
2022-08-04T16:43:08.113Z,25.48
2022-08-04T16:45:43.686Z,25.61
2022-08-04T16:48:13.159Z,25.55
2022-08-04T16:50:50.102Z,25.71
2022-08-04T16:53:52.348Z,25.59
2022-08-04T16:56:09.969Z,25.07
2022-08-04T16:58:38.200Z,24.85
2022-08-04T17:01:32.268Z,24.66
2022-08-04T17:04:06.065Z,24.69
2022-08-04T17:06:39.015Z,24.60
2022-08-04T17:09:18.226Z,24.29
2022-08-04T17:11:48.468Z,24.49
2022-08-04T17:14:22.669Z,24.32
2022-08-04T17:16:50.205Z,24.37
2022-08-04T17:19:26.031Z,23.76
2022-08-04T17:22:10.156Z,23.83
2022-08-04T17:24:40.837Z,23.78
2022-08-04T17:28:19.303Z,23.80
2022-08-04T17:29:56.925Z,23.68
2022-08-04T17:32:24.784Z,23.52
2022-08-04T17:34:55.376Z,23.38
2022-08-04T17:37:51.960Z,23.39
2022-08-04T17:40:22.744Z,23.42
2022-08-04T17:44:03.829Z,23.39
2022-08-04T17:46:28.557Z,23.33
2022-08-04T17:49:09.533Z,23.28
2022-08-04T17:52:06.650Z,23.25
2022-08-04T17:54:39.911Z,23.09
2022-08-04T17:57:21.092Z,23.01
2022-08-04T17:59:57.917Z,22.96
2022-08-04T18:02:32.226Z,22.98
2022-08-04T18:05:11.415Z,22.89
2022-08-04T18:08:37.682Z,22.81
2022-08-04T18:10:55.738Z,22.96
2022-08-04T18:13:28.872Z,22.86
2022-08-04T18:16:14.547Z,22.79
2022-08-04T18:19:13.502Z,22.70
2022-08-04T18:21:46.743Z,22.63
2022-08-04T18:24:35.544Z,22.65
2022-08-04T18:27:22.357Z,22.59
2022-08-04T18:30:33.880Z,22.57
2022-08-04T18:33:04.316Z,22.56
2022-08-04T18:36:34.731Z,22.48
2022-08-04T18:38:22.751Z,22.30
2022-08-04T18:40:52.980Z,22.37
2022-08-04T18:43:27.956Z,22.34
2022-08-04T18:45:57.778Z,22.30
2022-08-04T18:48:36.423Z,22.26
2022-08-04T18:53:58.883Z,21.86
2022-08-04T18:56:29.667Z,21.84
2022-08-04T18:59:04.083Z,21.88
2022-08-04T19:02:09.318Z,21.75
2022-08-04T19:04:33.031Z,21.79
2022-08-04T19:07:24.509Z,21.63
2022-08-04T19:09:51.866Z,21.49
2022-08-04T19:12:26.601Z,21.47
2022-08-04T19:15:08.514Z,21.19
2022-08-04T19:17:55.068Z,21.41
2022-08-04T19:20:29.469Z,21.21
2022-08-04T19:24:10.352Z,21.19
2022-08-04T19:28:36.940Z,21.08
2022-08-04T19:31:10.094Z,20.97
2022-08-04T19:33:58.836Z,21.02
2022-08-04T19:36:31.214Z,21.08
2022-08-04T19:39:00.706Z,20.93
2022-08-04T19:41:33.821Z,20.88
2022-08-04T19:44:21.481Z,20.87
2022-08-04T19:46:51.289Z,20.83
2022-08-04T19:50:05.458Z,20.73
2022-08-04T19:52:10.747Z,20.57
2022-08-04T19:54:40.854Z,20.62
2022-08-04T19:57:09.538Z,20.68
2022-08-04T19:59:39.373Z,20.62
2022-08-04T20:02:15.949Z,20.47
2022-08-04T20:04:43.488Z,20.54
2022-08-04T20:07:14.491Z,20.48
2022-08-04T20:09:58.970Z,20.41
2022-08-04T20:12:31.722Z,20.32
2022-08-04T20:14:59.566Z,20.31
2022-08-04T20:20:15.299Z,20.23
2022-08-04T20:22:51.890Z,20.24
2022-08-04T20:25:36.418Z,20.21
2022-08-04T20:28:05.545Z,20.28
2022-08-04T20:30:33.571Z,20.18
2022-08-04T20:33:01.468Z,20.28
2022-08-04T20:35:32.562Z,20.31
2022-08-04T20:41:10.095Z,20.13
2022-08-04T20:43:40.801Z,20.09
2022-08-04T20:46:17.662Z,20.02
2022-08-04T20:48:46.318Z,20.05
2022-08-04T20:51:20.038Z,20.08
2022-08-04T20:53:59.264Z,20.09
2022-08-04T20:56:30.658Z,20.07
2022-08-04T20:59:00.065Z,20.05
2022-08-04T21:01:29.551Z,20.02
2022-08-04T21:04:28.330Z,19.92
2022-08-04T21:06:58.017Z,19.98
2022-08-04T21:09:37.992Z,20.00
2022-08-04T21:12:17.063Z,19.94
2022-08-04T21:14:57.804Z,19.95
2022-08-04T21:17:59.223Z,19.98
2022-08-04T21:20:13.915Z,19.85
2022-08-04T21:22:42.075Z,19.79
2022-08-04T21:25:15.752Z,19.85
2022-08-04T21:27:44.523Z,19.82
2022-08-04T21:30:25.419Z,19.79
2022-08-04T21:32:55.166Z,19.82
2022-08-04T21:35:36.862Z,19.76
2022-08-04T21:38:16.606Z,19.83
2022-08-04T21:40:55.774Z,19.79
2022-08-04T21:43:28.573Z,19.82
2022-08-04T21:46:04.661Z,19.74
2022-08-04T21:48:33.293Z,19.64
2022-08-04T21:52:00.106Z,19.63
2022-08-04T21:54:26.447Z,19.69
2022-08-04T21:56:53.943Z,19.61
2022-08-04T21:59:23.729Z,19.54
2022-08-04T22:02:00.398Z,19.38
2022-08-04T22:04:28.667Z,19.50
2022-08-04T22:06:56.194Z,19.41
2022-08-04T22:09:23.744Z,19.50
2022-08-04T22:11:52.112Z,19.39
2022-08-04T22:14:29.646Z,19.32
2022-08-04T22:17:04.142Z,19.31
2022-08-04T22:19:49.857Z,19.25
2022-08-04T22:22:25.217Z,19.15
2022-08-04T22:24:58.497Z,19.23
2022-08-04T22:27:44.123Z,19.30
2022-08-04T22:30:17.051Z,19.26
2022-08-04T22:32:47.186Z,19.25
2022-08-04T22:35:35.427Z,19.40
2022-08-04T22:38:07.223Z,19.42
2022-08-04T22:41:12.491Z,19.27
2022-08-04T22:43:40.926Z,19.26
2022-08-04T22:46:11.960Z,19.23
2022-08-04T22:48:43.300Z,19.24
2022-08-04T22:51:13.004Z,19.26
2022-08-04T22:53:40.995Z,19.31
2022-08-04T22:56:11.150Z,19.19
2022-08-04T22:58:45.466Z,19.15
2022-08-04T23:01:18.127Z,19.14
2022-08-04T23:03:50.913Z,19.13
2022-08-04T23:06:24.401Z,19.02
2022-08-04T23:08:52.295Z,19.09
2022-08-04T23:11:20.301Z,19.07
2022-08-04T23:13:49.322Z,19.00
2022-08-04T23:16:18.943Z,18.99
2022-08-04T23:18:49.127Z,18.95
2022-08-04T23:21:17.657Z,18.95
2022-08-04T23:24:00.592Z,19.05
2022-08-04T23:26:30.225Z,19.01
2022-08-04T23:28:57.947Z,19.04
2022-08-04T23:31:40.703Z,19.04
2022-08-04T23:34:12.048Z,19.01
2022-08-04T23:36:40.341Z,18.95
2022-08-04T23:39:08.354Z,18.97
2022-08-04T23:41:53.249Z,18.97
2022-08-04T23:44:24.939Z,19.05
2022-08-04T23:47:04.644Z,18.99
2022-08-04T23:49:44.138Z,18.96
2022-08-04T23:52:28.090Z,18.88
2022-08-04T23:55:00.585Z,18.90
2022-08-04T23:57:30.844Z,18.93
